sensor_id;sensor_type;location;lat;lon;timestamp;P1;durP1;ratioP1;P2;durP2;ratioP2
75935;SDS011;64614;32.062;34.834;2023-12-14T00:02:04;4.95;;;2.20;;
75935;SDS011;64614;32.062;34.834;2023-12-14T00:04:44;4.97;;;2.20;;
75935;SDS011;64614;32.062;34.834;2023-12-14T00:07:10;4.00;;;1.98;;
75935;SDS011;64614;32.062;34.834;2023-12-14T00:09:42;5.68;;;2.28;;
75935;SDS011;64614;32.062;34.834;2023-12-14T00:12:07;5.78;;;2.40;;
75935;SDS011;64614;32.062;34.834;2023-12-14T00:14:33;4.10;;;2.10;;
75935;SDS011;64614;32.062;34.834;2023-12-14T00:16:58;4.10;;;2.20;;
75935;SDS011;64614;32.062;34.834;2023-12-14T00:19:25;3.53;;;1.92;;
75935;SDS011;64614;32.062;34.834;2023-12-14T00:21:52;5.70;;;2.30;;
75935;SDS011;64614;32.062;34.834;2023-12-14T00:24:18;4.15;;;2.03;;
75935;SDS011;64614;32.062;34.834;2023-12-14T00:26:44;4.50;;;2.20;;
75935;SDS011;64614;32.062;34.834;2023-12-14T00:29:10;6.32;;;2.40;;
75935;SDS011;64614;32.062;34.834;2023-12-14T00:31:38;3.90;;;2.10;;
75935;SDS011;64614;32.062;34.834;2023-12-14T00:34:04;4.93;;;2.10;;
75935;SDS011;64614;32.062;34.834;2023-12-14T00:36:31;5.25;;;2.40;;
75935;SDS011;64614;32.062;34.834;2023-12-14T00:38:58;5.95;;;2.10;;
75935;SDS011;64614;32.062;34.834;2023-12-14T00:41:24;5.40;;;2.35;;
75935;SDS011;64614;32.062;34.834;2023-12-14T00:43:49;6.88;;;2.20;;
75935;SDS011;64614;32.062;34.834;2023-12-14T00:46:15;5.90;;;2.03;;
75935;SDS011;64614;32.062;34.834;2023-12-14T00:48:41;5.35;;;2.30;;
75935;SDS011;64614;32.062;34.834;2023-12-14T00:51:06;5.85;;;2.35;;
75935;SDS011;64614;32.062;34.834;2023-12-14T00:53:32;6.47;;;2.40;;
75935;SDS011;64614;32.062;34.834;2023-12-14T00:55:58;4.88;;;2.10;;
75935;SDS011;64614;32.062;34.834;2023-12-14T00:58:23;4.68;;;2.35;;
75935;SDS011;64614;32.062;34.834;2023-12-14T01:00:49;5.53;;;2.20;;
75935;SDS011;64614;32.062;34.834;2023-12-14T01:03:14;5.13;;;2.28;;
75935;SDS011;64614;32.062;34.834;2023-12-14T01:05:40;5.65;;;2.13;;
75935;SDS011;64614;32.062;34.834;2023-12-14T01:08:07;6.47;;;2.45;;
75935;SDS011;64614;32.062;34.834;2023-12-14T01:10:33;5.38;;;2.30;;
75935;SDS011;64614;32.062;34.834;2023-12-14T01:13:00;4.72;;;2.30;;
75935;SDS011;64614;32.062;34.834;2023-12-14T01:15:27;3.88;;;2.33;;
75935;SDS011;64614;32.062;34.834;2023-12-14T01:17:52;5.03;;;2.10;;
75935;SDS011;64614;32.062;34.834;2023-12-14T01:20:19;4.07;;;2.30;;
75935;SDS011;64614;32.062;34.834;2023-12-14T01:22:46;5.78;;;2.10;;
75935;SDS011;64614;32.062;34.834;2023-12-14T01:25:12;5.07;;;2.50;;
75935;SDS011;64614;32.062;34.834;2023-12-14T01:27:37;6.05;;;2.50;;
75935;SDS011;64614;32.062;34.834;2023-12-14T01:30:03;5.63;;;2.58;;
75935;SDS011;64614;32.062;34.834;2023-12-14T01:32:29;4.07;;;2.50;;
75935;SDS011;64614;32.062;34.834;2023-12-14T01:34:56;5.25;;;2.25;;
75935;SDS011;64614;32.062;34.834;2023-12-14T01:37:21;4.85;;;2.20;;
75935;SDS011;64614;32.062;34.834;2023-12-14T01:39:47;4.10;;;2.00;;
75935;SDS011;64614;32.062;34.834;2023-12-14T01:42:13;5.90;;;2.40;;
75935;SDS011;64614;32.062;34.834;2023-12-14T01:44:38;4.65;;;2.30;;
75935;SDS011;64614;32.062;34.834;2023-12-14T01:47:04;4.30;;;2.10;;
75935;SDS011;64614;32.062;34.834;2023-12-14T01:52:06;4.90;;;2.10;;
75935;SDS011;64614;32.062;34.834;2023-12-14T01:54:32;4.65;;;2.00;;
75935;SDS011;64614;32.062;34.834;2023-12-14T01:56:58;4.20;;;2.10;;
75935;SDS011;64614;32.062;34.834;2023-12-14T01:59:24;4.03;;;1.98;;
75935;SDS011;64614;32.062;34.834;2023-12-14T02:01:54;5.72;;;2.33;;
75935;SDS011;64614;32.062;34.834;2023-12-14T02:04:22;4.38;;;2.10;;
75935;SDS011;64614;32.062;34.834;2023-12-14T02:06:50;5.30;;;2.20;;
75935;SDS011;64614;32.062;34.834;2023-12-14T02:09:16;5.93;;;2.30;;
75935;SDS011;64614;32.062;34.834;2023-12-14T02:11:41;5.80;;;2.33;;
75935;SDS011;64614;32.062;34.834;2023-12-14T02:14:11;5.35;;;2.25;;
75935;SDS011;64614;32.062;34.834;2023-12-14T02:16:37;4.13;;;2.15;;
75935;SDS011;64614;32.062;34.834;2023-12-14T02:19:07;5.53;;;2.40;;
75935;SDS011;64614;32.062;34.834;2023-12-14T02:21:33;4.32;;;2.20;;
75935;SDS011;64614;32.062;34.834;2023-12-14T02:23:58;5.65;;;2.30;;
75935;SDS011;64614;32.062;34.834;2023-12-14T02:26:24;5.20;;;2.45;;
75935;SDS011;64614;32.062;34.834;2023-12-14T02:28:50;6.32;;;2.70;;
75935;SDS011;64614;32.062;34.834;2023-12-14T02:31:15;4.95;;;2.30;;
75935;SDS011;64614;32.062;34.834;2023-12-14T02:33:45;4.63;;;2.10;;
75935;SDS011;64614;32.062;34.834;2023-12-14T02:36:11;5.25;;;2.50;;
75935;SDS011;64614;32.062;34.834;2023-12-14T02:38:37;5.80;;;2.45;;
75935;SDS011;64614;32.062;34.834;2023-12-14T02:41:03;5.30;;;2.45;;
75935;SDS011;64614;32.062;34.834;2023-12-14T02:43:29;4.82;;;2.40;;
75935;SDS011;64614;32.062;34.834;2023-12-14T02:45:55;3.67;;;2.35;;
75935;SDS011;64614;32.062;34.834;2023-12-14T02:48:26;5.22;;;2.50;;
75935;SDS011;64614;32.062;34.834;2023-12-14T02:50:56;6.22;;;2.60;;
75935;SDS011;64614;32.062;34.834;2023-12-14T02:53:25;4.32;;;2.35;;
75935;SDS011;64614;32.062;34.834;2023-12-14T02:55:51;6.60;;;2.53;;
75935;SDS011;64614;32.062;34.834;2023-12-14T02:58:16;6.15;;;2.67;;
75935;SDS011;64614;32.062;34.834;2023-12-14T03:00:43;5.18;;;2.47;;
75935;SDS011;64614;32.062;34.834;2023-12-14T03:03:08;8.02;;;2.65;;
75935;SDS011;64614;32.062;34.834;2023-12-14T03:05:34;4.72;;;2.40;;
75935;SDS011;64614;32.062;34.834;2023-12-14T03:08:01;5.30;;;2.50;;
75935;SDS011;64614;32.062;34.834;2023-12-14T03:10:27;4.88;;;2.40;;
75935;SDS011;64614;32.062;34.834;2023-12-14T03:12:53;6.20;;;2.33;;
75935;SDS011;64614;32.062;34.834;2023-12-14T03:15:18;5.55;;;2.30;;
75935;SDS011;64614;32.062;34.834;2023-12-14T03:17:44;4.55;;;2.15;;
75935;SDS011;64614;32.062;34.834;2023-12-14T03:20:10;4.80;;;2.50;;
75935;SDS011;64614;32.062;34.834;2023-12-14T03:22:38;5.15;;;2.30;;
75935;SDS011;64614;32.062;34.834;2023-12-14T03:25:04;6.00;;;2.47;;
75935;SDS011;64614;32.062;34.834;2023-12-14T03:27:31;5.50;;;2.75;;
75935;SDS011;64614;32.062;34.834;2023-12-14T03:29:58;4.63;;;2.08;;
75935;SDS011;64614;32.062;34.834;2023-12-14T03:32:24;4.78;;;2.30;;
75935;SDS011;64614;32.062;34.834;2023-12-14T03:34:49;6.07;;;2.42;;
75935;SDS011;64614;32.062;34.834;2023-12-14T03:37:15;5.78;;;2.55;;
75935;SDS011;64614;32.062;34.834;2023-12-14T03:44:50;5.55;;;2.75;;
75935;SDS011;64614;32.062;34.834;2023-12-14T03:47:16;5.80;;;2.42;;
75935;SDS011;64614;32.062;34.834;2023-12-14T03:49:41;5.88;;;2.65;;
75935;SDS011;64614;32.062;34.834;2023-12-14T03:52:08;7.03;;;2.50;;
75935;SDS011;64614;32.062;34.834;2023-12-14T03:54:35;5.70;;;2.47;;
75935;SDS011;64614;32.062;34.834;2023-12-14T03:57:11;6.25;;;2.30;;
75935;SDS011;64614;32.062;34.834;2023-12-14T03:59:40;4.68;;;2.30;;
75935;SDS011;64614;32.062;34.834;2023-12-14T04:02:07;4.97;;;2.45;;
75935;SDS011;64614;32.062;34.834;2023-12-14T04:04:33;4.38;;;2.15;;
75935;SDS011;64614;32.062;34.834;2023-12-14T04:07:04;4.82;;;2.53;;
75935;SDS011;64614;32.062;34.834;2023-12-14T04:38:29;6.05;;;2.55;;
75935;SDS011;64614;32.062;34.834;2023-12-14T04:40:55;7.85;;;2.88;;
75935;SDS011;64614;32.062;34.834;2023-12-14T04:43:20;7.05;;;3.25;;
75935;SDS011;64614;32.062;34.834;2023-12-14T04:45:46;8.95;;;3.35;;
75935;SDS011;64614;32.062;34.834;2023-12-14T04:48:11;6.93;;;3.25;;
75935;SDS011;64614;32.062;34.834;2023-12-14T04:50:37;7.38;;;3.70;;
75935;SDS011;64614;32.062;34.834;2023-12-14T04:53:03;6.88;;;3.10;;
75935;SDS011;64614;32.062;34.834;2023-12-14T04:55:29;7.78;;;3.35;;
75935;SDS011;64614;32.062;34.834;2023-12-14T04:57:55;7.93;;;3.50;;
75935;SDS011;64614;32.062;34.834;2023-12-14T05:00:20;7.60;;;3.53;;
75935;SDS011;64614;32.062;34.834;2023-12-14T05:02:46;7.18;;;3.63;;
75935;SDS011;64614;32.062;34.834;2023-12-14T05:05:13;7.00;;;3.63;;
75935;SDS011;64614;32.062;34.834;2023-12-14T05:07:39;9.93;;;3.83;;
75935;SDS011;64614;32.062;34.834;2023-12-14T05:10:05;7.00;;;3.30;;
75935;SDS011;64614;32.062;34.834;2023-12-14T05:12:31;6.20;;;3.00;;
75935;SDS011;64614;32.062;34.834;2023-12-14T05:14:56;8.75;;;4.03;;
75935;SDS011;64614;32.062;34.834;2023-12-14T05:20:09;9.93;;;4.13;;
75935;SDS011;64614;32.062;34.834;2023-12-14T05:27:46;9.20;;;4.88;;
75935;SDS011;64614;32.062;34.834;2023-12-14T05:30:12;12.05;;;4.45;;
75935;SDS011;64614;32.062;34.834;2023-12-14T05:32:38;11.10;;;5.28;;
75935;SDS011;64614;32.062;34.834;2023-12-14T05:35:10;15.05;;;7.10;;
75935;SDS011;64614;32.062;34.834;2023-12-14T05:37:59;14.20;;;7.28;;
75935;SDS011;64614;32.062;34.834;2023-12-14T05:40:25;14.25;;;7.78;;
75935;SDS011;64614;32.062;34.834;2023-12-14T05:42:51;12.65;;;7.47;;
75935;SDS011;64614;32.062;34.834;2023-12-14T05:45:18;12.85;;;6.45;;
75935;SDS011;64614;32.062;34.834;2023-12-14T05:47:44;10.73;;;6.47;;
75935;SDS011;64614;32.062;34.834;2023-12-14T05:50:10;9.73;;;5.88;;
75935;SDS011;64614;32.062;34.834;2023-12-14T05:52:36;10.43;;;6.22;;
75935;SDS011;64614;32.062;34.834;2023-12-14T05:57:59;11.07;;;5.97;;
75935;SDS011;64614;32.062;34.834;2023-12-14T06:00:24;10.32;;;6.10;;
75935;SDS011;64614;32.062;34.834;2023-12-14T06:02:59;11.20;;;6.40;;
75935;SDS011;64614;32.062;34.834;2023-12-14T06:06:09;11.98;;;6.00;;
75935;SDS011;64614;32.062;34.834;2023-12-14T06:14:58;15.40;;;7.45;;
75935;SDS011;64614;32.062;34.834;2023-12-14T06:18:16;13.60;;;8.05;;
75935;SDS011;64614;32.062;34.834;2023-12-14T06:20:46;12.35;;;8.15;;
75935;SDS011;64614;32.062;34.834;2023-12-14T06:23:12;11.38;;;6.70;;
75935;SDS011;64614;32.062;34.834;2023-12-14T06:29:17;12.88;;;7.57;;
75935;SDS011;64614;32.062;34.834;2023-12-14T06:31:53;13.15;;;7.90;;
75935;SDS011;64614;32.062;34.834;2023-12-14T06:34:19;12.35;;;7.50;;
75935;SDS011;64614;32.062;34.834;2023-12-14T06:36:45;15.27;;;8.00;;
75935;SDS011;64614;32.062;34.834;2023-12-14T06:39:11;13.73;;;8.45;;
75935;SDS011;64614;32.062;34.834;2023-12-14T06:41:37;13.13;;;8.10;;
75935;SDS011;64614;32.062;34.834;2023-12-14T06:44:03;13.93;;;8.32;;
75935;SDS011;64614;32.062;34.834;2023-12-14T06:46:28;12.85;;;7.43;;
75935;SDS011;64614;32.062;34.834;2023-12-14T06:49:00;11.45;;;6.70;;
75935;SDS011;64614;32.062;34.834;2023-12-14T06:51:25;10.98;;;7.03;;
75935;SDS011;64614;32.062;34.834;2023-12-14T06:53:51;11.90;;;7.28;;
75935;SDS011;64614;32.062;34.834;2023-12-14T06:56:17;11.18;;;6.72;;
75935;SDS011;64614;32.062;34.834;2023-12-14T07:16:57;10.50;;;6.00;;
75935;SDS011;64614;32.062;34.834;2023-12-14T07:19:22;11.88;;;7.25;;
75935;SDS011;64614;32.062;34.834;2023-12-14T07:21:54;11.40;;;7.45;;
75935;SDS011;64614;32.062;34.834;2023-12-14T07:24:28;12.82;;;8.32;;
75935;SDS011;64614;32.062;34.834;2023-12-14T07:26:54;14.55;;;8.35;;
75935;SDS011;64614;32.062;34.834;2023-12-14T07:29:23;15.10;;;8.88;;
75935;SDS011;64614;32.062;34.834;2023-12-14T07:31:48;12.35;;;8.60;;
75935;SDS011;64614;32.062;34.834;2023-12-14T07:34:25;14.52;;;8.00;;
75935;SDS011;64614;32.062;34.834;2023-12-14T07:36:58;13.27;;;8.85;;
75935;SDS011;64614;32.062;34.834;2023-12-14T07:39:23;13.50;;;8.65;;
75935;SDS011;64614;32.062;34.834;2023-12-14T07:41:58;12.65;;;7.97;;
75935;SDS011;64614;32.062;34.834;2023-12-14T07:47:09;13.13;;;8.50;;
75935;SDS011;64614;32.062;34.834;2023-12-14T07:52:50;15.27;;;9.05;;
75935;SDS011;64614;32.062;34.834;2023-12-14T07:55:22;14.45;;;8.38;;
75935;SDS011;64614;32.062;34.834;2023-12-14T07:58:03;13.82;;;7.65;;
75935;SDS011;64614;32.062;34.834;2023-12-14T08:00:35;14.57;;;7.40;;
75935;SDS011;64614;32.062;34.834;2023-12-14T08:03:01;12.98;;;7.90;;
75935;SDS011;64614;32.062;34.834;2023-12-14T08:05:27;12.70;;;7.57;;
75935;SDS011;64614;32.062;34.834;2023-12-14T08:07:52;13.13;;;7.70;;
75935;SDS011;64614;32.062;34.834;2023-12-14T08:10:19;11.88;;;7.55;;
75935;SDS011;64614;32.062;34.834;2023-12-14T08:12:48;13.10;;;7.05;;
75935;SDS011;64614;32.062;34.834;2023-12-14T08:17:48;10.70;;;6.88;;
75935;SDS011;64614;32.062;34.834;2023-12-14T08:20:15;13.13;;;8.50;;
75935;SDS011;64614;32.062;34.834;2023-12-14T08:22:41;12.00;;;7.13;;
75935;SDS011;64614;32.062;34.834;2023-12-14T08:25:13;12.15;;;7.75;;
75935;SDS011;64614;32.062;34.834;2023-12-14T08:27:57;12.48;;;7.57;;
75935;SDS011;64614;32.062;34.834;2023-12-14T08:30:22;11.75;;;6.97;;
75935;SDS011;64614;32.062;34.834;2023-12-14T08:32:51;11.68;;;7.20;;
75935;SDS011;64614;32.062;34.834;2023-12-14T08:37:51;12.13;;;6.88;;
75935;SDS011;64614;32.062;34.834;2023-12-14T08:40:17;10.48;;;6.18;;
75935;SDS011;64614;32.062;34.834;2023-12-14T08:42:43;11.23;;;6.28;;
75935;SDS011;64614;32.062;34.834;2023-12-14T08:45:09;10.95;;;6.35;;
75935;SDS011;64614;32.062;34.834;2023-12-14T08:47:36;9.77;;;6.45;;
75935;SDS011;64614;32.062;34.834;2023-12-14T08:50:05;8.80;;;5.95;;
75935;SDS011;64614;32.062;34.834;2023-12-14T08:52:32;8.98;;;5.75;;
75935;SDS011;64614;32.062;34.834;2023-12-14T08:54:58;10.82;;;6.47;;
75935;SDS011;64614;32.062;34.834;2023-12-14T08:57:24;11.57;;;6.43;;
75935;SDS011;64614;32.062;34.834;2023-12-14T08:59:49;9.27;;;5.43;;
75935;SDS011;64614;32.062;34.834;2023-12-14T09:02:15;8.48;;;5.68;;
75935;SDS011;64614;32.062;34.834;2023-12-14T09:04:40;9.02;;;5.75;;
75935;SDS011;64614;32.062;34.834;2023-12-14T09:07:06;9.10;;;5.72;;
75935;SDS011;64614;32.062;34.834;2023-12-14T09:09:33;10.00;;;5.50;;
75935;SDS011;64614;32.062;34.834;2023-12-14T09:11:58;10.18;;;5.93;;
75935;SDS011;64614;32.062;34.834;2023-12-14T09:14:30;10.90;;;6.13;;
75935;SDS011;64614;32.062;34.834;2023-12-14T09:16:56;10.20;;;5.30;;
75935;SDS011;64614;32.062;34.834;2023-12-14T09:19:23;8.82;;;5.20;;
75935;SDS011;64614;32.062;34.834;2023-12-14T09:21:49;9.35;;;5.10;;
75935;SDS011;64614;32.062;34.834;2023-12-14T09:24:15;8.05;;;4.80;;
75935;SDS011;64614;32.062;34.834;2023-12-14T09:29:15;9.25;;;5.30;;
75935;SDS011;64614;32.062;34.834;2023-12-14T09:31:45;7.32;;;4.53;;
75935;SDS011;64614;32.062;34.834;2023-12-14T09:34:12;8.10;;;4.60;;
75935;SDS011;64614;32.062;34.834;2023-12-14T09:49:47;9.48;;;4.90;;
75935;SDS011;64614;32.062;34.834;2023-12-14T09:54:42;8.50;;;4.95;;
75935;SDS011;64614;32.062;34.834;2023-12-14T10:06:07;8.25;;;4.50;;
75935;SDS011;64614;32.062;34.834;2023-12-14T10:08:32;9.15;;;4.43;;
75935;SDS011;64614;32.062;34.834;2023-12-14T10:13:39;7.57;;;4.05;;
75935;SDS011;64614;32.062;34.834;2023-12-14T10:25:20;6.07;;;3.42;;
75935;SDS011;64614;32.062;34.834;2023-12-14T10:27:50;5.93;;;3.20;;
75935;SDS011;64614;32.062;34.834;2023-12-14T10:30:18;8.52;;;3.58;;
75935;SDS011;64614;32.062;34.834;2023-12-14T10:32:46;6.40;;;3.17;;
75935;SDS011;64614;32.062;34.834;2023-12-14T10:35:14;4.88;;;2.83;;
75935;SDS011;64614;32.062;34.834;2023-12-14T10:37:44;7.43;;;3.20;;
75935;SDS011;64614;32.062;34.834;2023-12-14T10:40:11;5.20;;;2.92;;
75935;SDS011;64614;32.062;34.834;2023-12-14T10:42:39;5.13;;;2.50;;
75935;SDS011;64614;32.062;34.834;2023-12-14T10:45:08;5.35;;;2.60;;
75935;SDS011;64614;32.062;34.834;2023-12-14T10:47:44;5.85;;;2.83;;
75935;SDS011;64614;32.062;34.834;2023-12-14T10:50:13;7.45;;;3.13;;
75935;SDS011;64614;32.062;34.834;2023-12-14T10:52:39;5.85;;;2.75;;
75935;SDS011;64614;32.062;34.834;2023-12-14T10:55:15;7.30;;;3.67;;
75935;SDS011;64614;32.062;34.834;2023-12-14T10:57:47;7.28;;;3.17;;
75935;SDS011;64614;32.062;34.834;2023-12-14T11:00:15;7.97;;;3.53;;
75935;SDS011;64614;32.062;34.834;2023-12-14T11:02:45;7.55;;;3.22;;
75935;SDS011;64614;32.062;34.834;2023-12-14T11:05:13;7.10;;;3.00;;
75935;SDS011;64614;32.062;34.834;2023-12-14T11:07:47;6.35;;;2.75;;
75935;SDS011;64614;32.062;34.834;2023-12-14T11:10:21;6.60;;;3.35;;
75935;SDS011;64614;32.062;34.834;2023-12-14T11:13:11;4.80;;;2.60;;
75935;SDS011;64614;32.062;34.834;2023-12-14T11:15:40;7.72;;;3.42;;
75935;SDS011;64614;32.062;34.834;2023-12-14T11:23:25;6.38;;;2.90;;
75935;SDS011;64614;32.062;34.834;2023-12-14T11:29:07;5.10;;;2.70;;
75935;SDS011;64614;32.062;34.834;2023-12-14T11:31:42;5.70;;;2.78;;
75935;SDS011;64614;32.062;34.834;2023-12-14T11:34:10;4.28;;;2.40;;
75935;SDS011;64614;32.062;34.834;2023-12-14T11:55:34;3.88;;;2.30;;
75935;SDS011;64614;32.062;34.834;2023-12-14T11:58:02;5.13;;;2.40;;
75935;SDS011;64614;32.062;34.834;2023-12-14T12:03:20;3.85;;;2.17;;
75935;SDS011;64614;32.062;34.834;2023-12-14T12:05:47;4.45;;;2.60;;
75935;SDS011;64614;32.062;34.834;2023-12-14T12:57:22;6.65;;;2.78;;
75935;SDS011;64614;32.062;34.834;2023-12-14T12:59:48;5.05;;;2.83;;
75935;SDS011;64614;32.062;34.834;2023-12-14T13:02:14;5.28;;;2.63;;
75935;SDS011;64614;32.062;34.834;2023-12-14T13:04:39;6.07;;;2.50;;
75935;SDS011;64614;32.062;34.834;2023-12-14T13:07:05;6.13;;;2.78;;
75935;SDS011;64614;32.062;34.834;2023-12-14T13:09:31;6.60;;;3.13;;
75935;SDS011;64614;32.062;34.834;2023-12-14T13:11:59;7.47;;;2.92;;
75935;SDS011;64614;32.062;34.834;2023-12-14T13:14:24;6.40;;;3.28;;
75935;SDS011;64614;32.062;34.834;2023-12-14T13:16:50;9.23;;;3.17;;
75935;SDS011;64614;32.062;34.834;2023-12-14T13:19:15;6.65;;;2.95;;
75935;SDS011;64614;32.062;34.834;2023-12-14T13:21:41;5.25;;;2.70;;
75935;SDS011;64614;32.062;34.834;2023-12-14T13:24:08;6.47;;;2.65;;
75935;SDS011;64614;32.062;34.834;2023-12-14T13:26:35;8.05;;;3.00;;
75935;SDS011;64614;32.062;34.834;2023-12-14T13:29:01;7.20;;;2.83;;
75935;SDS011;64614;32.062;34.834;2023-12-14T13:31:27;5.53;;;2.45;;
75935;SDS011;64614;32.062;34.834;2023-12-14T13:33:52;5.05;;;2.53;;
75935;SDS011;64614;32.062;34.834;2023-12-14T13:36:18;7.43;;;2.95;;
75935;SDS011;64614;32.062;34.834;2023-12-14T13:38:44;6.05;;;2.83;;
75935;SDS011;64614;32.062;34.834;2023-12-14T13:41:10;6.63;;;3.00;;
75935;SDS011;64614;32.062;34.834;2023-12-14T13:43:36;6.93;;;2.80;;
75935;SDS011;64614;32.062;34.834;2023-12-14T13:46:02;7.95;;;2.85;;
75935;SDS011;64614;32.062;34.834;2023-12-14T13:48:28;5.68;;;2.95;;
75935;SDS011;64614;32.062;34.834;2023-12-14T13:50:54;8.00;;;2.90;;
75935;SDS011;64614;32.062;34.834;2023-12-14T13:53:20;6.35;;;2.83;;
75935;SDS011;64614;32.062;34.834;2023-12-14T13:55:46;6.93;;;3.00;;
75935;SDS011;64614;32.062;34.834;2023-12-14T13:58:14;5.72;;;2.85;;
75935;SDS011;64614;32.062;34.834;2023-12-14T14:00:43;5.18;;;2.67;;
75935;SDS011;64614;32.062;34.834;2023-12-14T14:03:09;5.40;;;2.90;;
75935;SDS011;64614;32.062;34.834;2023-12-14T14:05:38;4.95;;;2.75;;
75935;SDS011;64614;32.062;34.834;2023-12-14T14:08:04;5.13;;;2.70;;
75935;SDS011;64614;32.062;34.834;2023-12-14T14:10:31;5.15;;;3.00;;
75935;SDS011;64614;32.062;34.834;2023-12-14T14:12:57;6.88;;;3.00;;
75935;SDS011;64614;32.062;34.834;2023-12-14T14:15:23;6.07;;;3.17;;
75935;SDS011;64614;32.062;34.834;2023-12-14T14:17:48;4.88;;;2.78;;
75935;SDS011;64614;32.062;34.834;2023-12-14T14:20:17;5.78;;;2.75;;
75935;SDS011;64614;32.062;34.834;2023-12-14T14:22:43;5.35;;;2.90;;
75935;SDS011;64614;32.062;34.834;2023-12-14T14:35:30;9.30;;;3.20;;
75935;SDS011;64614;32.062;34.834;2023-12-14T14:37:58;6.18;;;2.95;;
75935;SDS011;64614;32.062;34.834;2023-12-14T14:40:26;8.60;;;2.92;;
75935;SDS011;64614;32.062;34.834;2023-12-14T14:42:52;8.88;;;2.70;;
75935;SDS011;64614;32.062;34.834;2023-12-14T14:45:17;7.25;;;3.08;;
75935;SDS011;64614;32.062;34.834;2023-12-14T14:47:43;9.30;;;3.20;;
75935;SDS011;64614;32.062;34.834;2023-12-14T14:50:09;8.48;;;3.20;;
75935;SDS011;64614;32.062;34.834;2023-12-14T14:52:35;5.53;;;3.03;;
75935;SDS011;64614;32.062;34.834;2023-12-14T14:55:00;7.63;;;2.80;;
75935;SDS011;64614;32.062;34.834;2023-12-14T14:57:26;6.10;;;3.05;;
75935;SDS011;64614;32.062;34.834;2023-12-14T14:59:52;6.78;;;3.20;;
75935;SDS011;64614;32.062;34.834;2023-12-14T15:02:18;6.47;;;3.00;;
75935;SDS011;64614;32.062;34.834;2023-12-14T15:04:46;6.68;;;3.22;;
75935;SDS011;64614;32.062;34.834;2023-12-14T15:07:12;7.78;;;3.40;;
75935;SDS011;64614;32.062;34.834;2023-12-14T15:09:38;7.55;;;3.17;;
75935;SDS011;64614;32.062;34.834;2023-12-14T15:12:04;7.90;;;3.42;;
75935;SDS011;64614;32.062;34.834;2023-12-14T15:14:30;5.90;;;3.15;;
75935;SDS011;64614;32.062;34.834;2023-12-14T15:16:56;7.40;;;3.08;;
75935;SDS011;64614;32.062;34.834;2023-12-14T15:27:07;9.27;;;3.30;;
75935;SDS011;64614;32.062;34.834;2023-12-14T15:29:33;6.10;;;2.60;;
75935;SDS011;64614;32.062;34.834;2023-12-14T15:31:59;5.72;;;3.08;;
75935;SDS011;64614;32.062;34.834;2023-12-14T15:34:24;6.35;;;3.22;;
75935;SDS011;64614;32.062;34.834;2023-12-14T15:36:50;6.72;;;1.90;;
75935;SDS011;64614;32.062;34.834;2023-12-14T15:39:15;6.82;;;2.30;;
75935;SDS011;64614;32.062;34.834;2023-12-14T15:41:42;9.65;;;2.67;;
75935;SDS011;64614;32.062;34.834;2023-12-14T15:44:08;10.18;;;2.92;;
75935;SDS011;64614;32.062;34.834;2023-12-14T15:46:33;9.20;;;2.90;;
75935;SDS011;64614;32.062;34.834;2023-12-14T15:48:59;8.40;;;2.70;;
75935;SDS011;64614;32.062;34.834;2023-12-14T15:51:25;8.98;;;2.70;;
75935;SDS011;64614;32.062;34.834;2023-12-14T15:53:51;7.53;;;2.30;;
75935;SDS011;64614;32.062;34.834;2023-12-14T15:56:18;9.15;;;2.53;;
75935;SDS011;64614;32.062;34.834;2023-12-14T15:58:47;7.38;;;2.70;;
75935;SDS011;64614;32.062;34.834;2023-12-14T16:01:17;5.93;;;2.08;;
75935;SDS011;64614;32.062;34.834;2023-12-14T16:09:32;5.53;;;2.25;;
75935;SDS011;64614;32.062;34.834;2023-12-14T16:11:58;7.05;;;2.15;;
75935;SDS011;64614;32.062;34.834;2023-12-14T16:14:25;8.20;;;2.10;;
75935;SDS011;64614;32.062;34.834;2023-12-14T16:16:51;5.82;;;1.83;;
75935;SDS011;64614;32.062;34.834;2023-12-14T16:19:16;5.85;;;2.30;;
75935;SDS011;64614;32.062;34.834;2023-12-14T16:21:46;9.90;;;2.13;;
75935;SDS011;64614;32.062;34.834;2023-12-14T16:24:12;5.97;;;1.90;;
75935;SDS011;64614;32.062;34.834;2023-12-14T16:26:39;9.38;;;2.38;;
75935;SDS011;64614;32.062;34.834;2023-12-14T16:29:07;4.93;;;2.00;;
75935;SDS011;64614;32.062;34.834;2023-12-14T16:31:42;6.32;;;2.40;;
75935;SDS011;64614;32.062;34.834;2023-12-14T16:34:10;8.45;;;2.38;;
75935;SDS011;64614;32.062;34.834;2023-12-14T16:36:37;7.03;;;2.20;;
75935;SDS011;64614;32.062;34.834;2023-12-14T16:39:05;5.75;;;2.30;;
75935;SDS011;64614;32.062;34.834;2023-12-14T16:48:15;7.10;;;2.60;;
75935;SDS011;64614;32.062;34.834;2023-12-14T16:50:44;8.63;;;2.65;;
75935;SDS011;64614;32.062;34.834;2023-12-14T16:53:11;8.50;;;2.10;;
75935;SDS011;64614;32.062;34.834;2023-12-14T16:55:55;7.47;;;2.70;;
75935;SDS011;64614;32.062;34.834;2023-12-14T17:30:01;6.15;;;2.33;;
75935;SDS011;64614;32.062;34.834;2023-12-14T17:32:28;6.75;;;2.22;;
75935;SDS011;64614;32.062;34.834;2023-12-14T17:34:53;8.25;;;2.70;;
75935;SDS011;64614;32.062;34.834;2023-12-14T17:47:40;7.15;;;2.15;;
75935;SDS011;64614;32.062;34.834;2023-12-14T17:50:05;5.40;;;2.33;;
75935;SDS011;64614;32.062;34.834;2023-12-14T17:52:31;9.40;;;2.42;;
75935;SDS011;64614;32.062;34.834;2023-12-14T18:08:08;17.38;;;8.23;;
75935;SDS011;64614;32.062;34.834;2023-12-14T18:10:36;16.73;;;7.28;;
75935;SDS011;64614;32.062;34.834;2023-12-14T18:13:04;13.35;;;6.68;;
75935;SDS011;64614;32.062;34.834;2023-12-14T18:15:29;13.90;;;6.57;;
75935;SDS011;64614;32.062;34.834;2023-12-14T18:17:55;14.23;;;6.75;;
75935;SDS011;64614;32.062;34.834;2023-12-14T18:20:27;17.63;;;8.40;;
75935;SDS011;64614;32.062;34.834;2023-12-14T18:22:54;14.85;;;8.02;;
75935;SDS011;64614;32.062;34.834;2023-12-14T18:25:20;13.90;;;7.80;;
75935;SDS011;64614;32.062;34.834;2023-12-14T18:27:49;13.85;;;7.43;;
75935;SDS011;64614;32.062;34.834;2023-12-14T18:30:20;15.45;;;7.82;;
75935;SDS011;64614;32.062;34.834;2023-12-14T18:32:58;14.23;;;7.57;;
75935;SDS011;64614;32.062;34.834;2023-12-14T18:35:31;18.85;;;8.07;;
75935;SDS011;64614;32.062;34.834;2023-12-14T18:37:56;15.57;;;7.03;;
75935;SDS011;64614;32.062;34.834;2023-12-14T18:40:23;14.38;;;7.72;;
75935;SDS011;64614;32.062;34.834;2023-12-14T18:42:59;14.60;;;7.60;;
75935;SDS011;64614;32.062;34.834;2023-12-14T18:48:25;14.38;;;7.65;;
75935;SDS011;64614;32.062;34.834;2023-12-14T18:54:10;16.17;;;8.52;;
75935;SDS011;64614;32.062;34.834;2023-12-14T18:56:36;18.05;;;10.30;;
75935;SDS011;64614;32.062;34.834;2023-12-14T18:59:02;15.50;;;8.98;;
75935;SDS011;64614;32.062;34.834;2023-12-14T19:01:40;18.50;;;9.27;;
75935;SDS011;64614;32.062;34.834;2023-12-14T19:09:16;15.35;;;8.88;;
75935;SDS011;64614;32.062;34.834;2023-12-14T19:11:41;17.38;;;8.95;;
75935;SDS011;64614;32.062;34.834;2023-12-14T19:14:07;18.63;;;10.43;;
75935;SDS011;64614;32.062;34.834;2023-12-14T19:16:33;19.02;;;10.57;;
75935;SDS011;64614;32.062;34.834;2023-12-14T19:19:00;19.67;;;12.15;;
75935;SDS011;64614;32.062;34.834;2023-12-14T19:21:29;19.42;;;10.18;;
75935;SDS011;64614;32.062;34.834;2023-12-14T19:23:57;20.52;;;10.02;;
75935;SDS011;64614;32.062;34.834;2023-12-14T19:26:24;18.50;;;10.50;;
75935;SDS011;64614;32.062;34.834;2023-12-14T19:28:51;19.73;;;10.52;;
75935;SDS011;64614;32.062;34.834;2023-12-14T19:31:25;17.75;;;9.95;;
75935;SDS011;64614;32.062;34.834;2023-12-14T19:34:04;18.45;;;10.27;;
75935;SDS011;64614;32.062;34.834;2023-12-14T19:36:33;19.00;;;10.55;;